sensor_id;sensor_type;location;lat;lon;timestamp;pressure;altitude;pressure_sealevel;temperature;humidity
34328;BME280;20588;48.840;10.064;2023-02-13T00:00:28;98357.38;;;3.43;nan
34328;BME280;20588;48.840;10.064;2023-02-13T00:02:54;98354.59;;;3.46;nan
34328;BME280;20588;48.840;10.064;2023-02-13T00:05:20;98356.56;;;3.42;nan
34328;BME280;20588;48.840;10.064;2023-02-13T00:07:46;98347.69;;;3.37;nan
34328;BME280;20588;48.840;10.064;2023-02-13T00:10:12;98343.00;;;3.53;nan
34328;BME280;20588;48.840;10.064;2023-02-13T00:12:39;98354.22;;;3.50;nan
34328;BME280;20588;48.840;10.064;2023-02-13T00:15:06;98353.88;;;3.44;nan
34328;BME280;20588;48.840;10.064;2023-02-13T00:17:32;98354.72;;;3.44;nan
34328;BME280;20588;48.840;10.064;2023-02-13T00:19:58;98348.25;;;3.40;nan
34328;BME280;20588;48.840;10.064;2023-02-13T00:22:24;98351.16;;;3.36;nan
34328;BME280;20588;48.840;10.064;2023-02-13T00:24:50;98348.84;;;3.33;nan
34328;BME280;20588;48.840;10.064;2023-02-13T00:27:16;98355.19;;;3.38;nan
34328;BME280;20588;48.840;10.064;2023-02-13T00:29:42;98353.59;;;3.37;nan
34328;BME280;20588;48.840;10.064;2023-02-13T00:32:09;98348.03;;;3.32;nan
34328;BME280;20588;48.840;10.064;2023-02-13T00:34:35;98349.22;;;3.28;nan
34328;BME280;20588;48.840;10.064;2023-02-13T00:37:01;98357.19;;;3.24;nan
34328;BME280;20588;48.840;10.064;2023-02-13T00:39:27;98357.63;;;3.29;nan
34328;BME280;20588;48.840;10.064;2023-02-13T00:41:53;98356.97;;;3.27;nan
34328;BME280;20588;48.840;10.064;2023-02-13T00:44:19;98353.59;;;3.26;nan
34328;BME280;20588;48.840;10.064;2023-02-13T00:46:45;98352.91;;;3.24;nan
34328;BME280;20588;48.840;10.064;2023-02-13T00:49:12;98354.41;;;3.27;nan
34328;BME280;20588;48.840;10.064;2023-02-13T00:51:38;98354.41;;;3.27;nan
34328;BME280;20588;48.840;10.064;2023-02-13T00:54:04;98357.44;;;3.21;nan
34328;BME280;20588;48.840;10.064;2023-02-13T00:56:30;98356.03;;;3.17;nan
34328;BME280;20588;48.840;10.064;2023-02-13T00:58:56;98360.91;;;3.09;nan
34328;BME280;20588;48.840;10.064;2023-02-13T01:01:22;98354.91;;;3.10;nan
34328;BME280;20588;48.840;10.064;2023-02-13T01:03:48;98348.44;;;3.06;nan
34328;BME280;20588;48.840;10.064;2023-02-13T01:06:14;98347.75;;;3.04;nan
34328;BME280;20588;48.840;10.064;2023-02-13T01:08:40;98347.16;;;3.00;nan
34328;BME280;20588;48.840;10.064;2023-02-13T01:11:06;98347.88;;;3.02;nan
34328;BME280;20588;48.840;10.064;2023-02-13T01:13:33;98344.75;;;2.99;nan
34328;BME280;20588;48.840;10.064;2023-02-13T01:15:59;98343.38;;;2.95;nan
34328;BME280;20588;48.840;10.064;2023-02-13T01:18:25;98339.41;;;2.91;nan
34328;BME280;20588;48.840;10.064;2023-02-13T01:21:00;98343.59;;;2.92;nan
34328;BME280;20588;48.840;10.064;2023-02-13T01:23:30;98340.72;;;2.96;nan
34328;BME280;20588;48.840;10.064;2023-02-13T01:25:57;98341.28;;;2.89;nan
34328;BME280;20588;48.840;10.064;2023-02-13T01:28:23;98340.59;;;2.87;nan
34328;BME280;20588;48.840;10.064;2023-02-13T01:30:54;98342.19;;;2.88;nan
34328;BME280;20588;48.840;10.064;2023-02-13T01:33:21;98343.13;;;2.87;nan
34328;BME280;20588;48.840;10.064;2023-02-13T01:35:48;98336.22;;;2.78;nan
34328;BME280;20588;48.840;10.064;2023-02-13T01:38:14;98341.19;;;2.79;nan
34328;BME280;20588;48.840;10.064;2023-02-13T01:40:47;98330.44;;;2.76;nan
34328;BME280;20588;48.840;10.064;2023-02-13T01:43:13;98330.66;;;2.73;nan
34328;BME280;20588;48.840;10.064;2023-02-13T01:45:40;98329.28;;;2.69;nan
34328;BME280;20588;48.840;10.064;2023-02-13T01:48:24;98328.13;;;2.73;nan
34328;BME280;20588;48.840;10.064;2023-02-13T01:51:01;98322.00;;;2.75;nan
34328;BME280;20588;48.840;10.064;2023-02-13T01:53:47;98319.59;;;2.74;nan
34328;BME280;20588;48.840;10.064;2023-02-13T01:56:22;98315.75;;;2.79;nan
34328;BME280;20588;48.840;10.064;2023-02-13T01:58:53;98316.00;;;2.76;nan
34328;BME280;20588;48.840;10.064;2023-02-13T02:03:54;98313.34;;;2.78;nan
34328;BME280;20588;48.840;10.064;2023-02-13T02:06:27;98318.19;;;2.81;nan
34328;BME280;20588;48.840;10.064;2023-02-13T02:08:57;98317.25;;;2.82;nan
34328;BME280;20588;48.840;10.064;2023-02-13T02:11:43;98319.66;;;2.83;nan
34328;BME280;20588;48.840;10.064;2023-02-13T02:14:10;98307.78;;;2.73;nan
34328;BME280;20588;48.840;10.064;2023-02-13T02:16:36;98314.03;;;2.69;nan
34328;BME280;20588;48.840;10.064;2023-02-13T02:19:07;98308.72;;;2.72;nan
34328;BME280;20588;48.840;10.064;2023-02-13T02:27:20;98308.28;;;2.56;nan
34328;BME280;20588;48.840;10.064;2023-02-13T02:41:28;98295.34;;;2.48;nan
34328;BME280;20588;48.840;10.064;2023-02-13T02:44:24;98298.22;;;2.43;nan
34328;BME280;20588;48.840;10.064;2023-02-13T02:47:09;98296.28;;;2.47;nan
34328;BME280;20588;48.840;10.064;2023-02-13T02:50:31;98295.56;;;2.45;nan
34328;BME280;20588;48.840;10.064;2023-02-13T02:53:25;98295.34;;;2.37;nan
34328;BME280;20588;48.840;10.064;2023-02-13T02:56:12;98294.66;;;2.35;nan
34328;BME280;20588;48.840;10.064;2023-02-13T03:01:36;98291.66;;;2.41;nan
34328;BME280;20588;48.840;10.064;2023-02-13T03:04:45;98290.72;;;2.31;nan
34328;BME280;20588;48.840;10.064;2023-02-13T03:07:30;98291.75;;;2.28;nan
34328;BME280;20588;48.840;10.064;2023-02-13T03:10:03;98291.16;;;2.25;nan
34328;BME280;20588;48.840;10.064;2023-02-13T03:13:00;98284.00;;;2.19;nan
34328;BME280;20588;48.840;10.064;2023-02-13T03:15:46;98289.22;;;2.28;nan
34328;BME280;20588;48.840;10.064;2023-02-13T03:18:36;98288.06;;;2.21;nan
34328;BME280;20588;48.840;10.064;2023-02-13T03:21:46;98302.94;;;2.15;nan
34328;BME280;20588;48.840;10.064;2023-02-13T03:35:53;98311.66;;;1.88;nan
34328;BME280;20588;48.840;10.064;2023-02-13T03:39:05;98317.75;;;1.86;nan
34328;BME280;20588;48.840;10.064;2023-02-13T03:41:49;98316.94;;;1.85;nan
34328;BME280;20588;48.840;10.064;2023-02-13T03:44:38;98318.78;;;1.83;nan
34328;BME280;20588;48.840;10.064;2023-02-13T03:47:08;98314.84;;;1.79;nan
34328;BME280;20588;48.840;10.064;2023-02-13T03:49:41;98317.72;;;1.75;nan
34328;BME280;20588;48.840;10.064;2023-02-13T03:54:59;98323.50;;;1.77;nan
34328;BME280;20588;48.840;10.064;2023-02-13T03:57:45;98327.53;;;1.79;nan
34328;BME280;20588;48.840;10.064;2023-02-13T04:00:44;98330.41;;;1.75;nan
34328;BME280;20588;48.840;10.064;2023-02-13T04:03:24;98329.16;;;1.80;nan
34328;BME280;20588;48.840;10.064;2023-02-13T04:06:06;98340.78;;;1.72;nan
34328;BME280;20588;48.840;10.064;2023-02-13T04:08:34;98345.84;;;1.72;nan
34328;BME280;20588;48.840;10.064;2023-02-13T04:11:13;98347.09;;;1.66;nan
34328;BME280;20588;48.840;10.064;2023-02-13T04:13:58;98349.16;;;1.61;nan
34328;BME280;20588;48.840;10.064;2023-02-13T04:16:33;98349.69;;;1.54;nan
34328;BME280;20588;48.840;10.064;2023-02-13T04:19:00;98354.47;;;1.46;nan
34328;BME280;20588;48.840;10.064;2023-02-13T04:21:30;98358.28;;;1.40;nan
34328;BME280;20588;48.840;10.064;2023-02-13T04:23:56;98356.31;;;1.44;nan
34328;BME280;20588;48.840;10.064;2023-02-13T04:26:23;98361.13;;;1.36;nan
34328;BME280;20588;48.840;10.064;2023-02-13T04:28:50;98360.84;;;1.28;nan
34328;BME280;20588;48.840;10.064;2023-02-13T04:31:16;98361.81;;;1.14;nan
34328;BME280;20588;48.840;10.064;2023-02-13T04:33:42;98359.91;;;1.05;nan
34328;BME280;20588;48.840;10.064;2023-02-13T04:36:09;98360.31;;;0.99;nan
34328;BME280;20588;48.840;10.064;2023-02-13T04:38:35;98360.94;;;1.03;nan
34328;BME280;20588;48.840;10.064;2023-02-13T04:41:01;98363.28;;;0.93;nan
34328;BME280;20588;48.840;10.064;2023-02-13T04:43:27;98356.81;;;0.89;nan
34328;BME280;20588;48.840;10.064;2023-02-13T04:45:53;98359.56;;;0.86;nan
34328;BME280;20588;48.840;10.064;2023-02-13T04:48:19;98354.59;;;0.85;nan
34328;BME280;20588;48.840;10.064;2023-02-13T04:50:45;98360.34;;;0.87;nan
34328;BME280;20588;48.840;10.064;2023-02-13T04:53:11;98358.31;;;0.79;nan
34328;BME280;20588;48.840;10.064;2023-02-13T04:55:37;98367.97;;;0.74;nan
34328;BME280;20588;48.840;10.064;2023-02-13T04:58:03;98365.63;;;0.71;nan
34328;BME280;20588;48.840;10.064;2023-02-13T05:00:29;98361.06;;;0.64;nan
34328;BME280;20588;48.840;10.064;2023-02-13T05:03:04;98367.16;;;0.61;nan
34328;BME280;20588;48.840;10.064;2023-02-13T05:05:30;98363.81;;;0.61;nan
34328;BME280;20588;48.840;10.064;2023-02-13T05:07:56;98362.31;;;0.58;nan
34328;BME280;20588;48.840;10.064;2023-02-13T05:10:22;98362.19;;;0.60;nan
34328;BME280;20588;48.840;10.064;2023-02-13T05:12:48;98359.97;;;0.55;nan
34328;BME280;20588;48.840;10.064;2023-02-13T05:15:14;98368.91;;;0.48;nan
34328;BME280;20588;48.840;10.064;2023-02-13T05:17:43;98371.94;;;0.41;nan
34328;BME280;20588;48.840;10.064;2023-02-13T05:20:10;98366.16;;;0.39;nan
34328;BME280;20588;48.840;10.064;2023-02-13T05:22:36;98369.50;;;0.39;nan
34328;BME280;20588;48.840;10.064;2023-02-13T05:25:20;98374.97;;;0.46;nan
34328;BME280;20588;48.840;10.064;2023-02-13T05:27:46;98376.97;;;0.66;nan
34328;BME280;20588;48.840;10.064;2023-02-13T05:30:13;98377.28;;;0.61;nan
34328;BME280;20588;48.840;10.064;2023-02-13T05:32:39;98379.22;;;0.45;nan
34328;BME280;20588;48.840;10.064;2023-02-13T05:35:08;98375.25;;;0.41;nan
34328;BME280;20588;48.840;10.064;2023-02-13T05:37:34;98375.66;;;0.35;nan
34328;BME280;20588;48.840;10.064;2023-02-13T05:40:00;98375.97;;;0.31;nan
34328;BME280;20588;48.840;10.064;2023-02-13T05:42:26;98377.19;;;0.25;nan
34328;BME280;20588;48.840;10.064;2023-02-13T05:44:52;98366.66;;;0.19;nan
34328;BME280;20588;48.840;10.064;2023-02-13T05:47:18;98369.47;;;0.14;nan
34328;BME280;20588;48.840;10.064;2023-02-13T05:49:44;98369.69;;;0.11;nan
34328;BME280;20588;48.840;10.064;2023-02-13T05:52:10;98366.03;;;0.03;nan
34328;BME280;20588;48.840;10.064;2023-02-13T05:54:36;98366.44;;;-0.04;nan
34328;BME280;20588;48.840;10.064;2023-02-13T05:57:03;98373.38;;;-0.07;nan
34328;BME280;20588;48.840;10.064;2023-02-13T05:59:30;98374.69;;;-0.14;nan
34328;BME280;20588;48.840;10.064;2023-02-13T06:01:56;98374.59;;;-0.13;nan
34328;BME280;20588;48.840;10.064;2023-02-13T06:04:22;98372.38;;;-0.17;nan
34328;BME280;20588;48.840;10.064;2023-02-13T06:06:48;98365.88;;;-0.21;nan
34328;BME280;20588;48.840;10.064;2023-02-13T06:09:14;98372.84;;;-0.25;nan
34328;BME280;20588;48.840;10.064;2023-02-13T06:11:40;98376.38;;;-0.27;nan
34328;BME280;20588;48.840;10.064;2023-02-13T06:14:06;98373.84;;;-0.27;nan
34328;BME280;20588;48.840;10.064;2023-02-13T06:16:32;98370.63;;;-0.29;nan
34328;BME280;20588;48.840;10.064;2023-02-13T06:18:59;98382.16;;;-0.25;nan
34328;BME280;20588;48.840;10.064;2023-02-13T06:21:25;98382.78;;;-0.09;nan
34328;BME280;20588;48.840;10.064;2023-02-13T06:23:51;98377.16;;;0.00;nan
34328;BME280;20588;48.840;10.064;2023-02-13T06:26:17;98380.38;;;0.02;nan
34328;BME280;20588;48.840;10.064;2023-02-13T06:28:43;98380.22;;;0.18;nan
34328;BME280;20588;48.840;10.064;2023-02-13T06:31:09;98381.13;;;0.17;nan
34328;BME280;20588;48.840;10.064;2023-02-13T06:33:35;98392.16;;;0.16;nan
34328;BME280;20588;48.840;10.064;2023-02-13T06:36:02;98388.44;;;0.21;nan
34328;BME280;20588;48.840;10.064;2023-02-13T06:38:28;98390.03;;;0.22;nan
34328;BME280;20588;48.840;10.064;2023-02-13T06:40:59;98395.72;;;0.26;nan
34328;BME280;20588;48.840;10.064;2023-02-13T06:43:27;98395.81;;;0.24;nan
34328;BME280;20588;48.840;10.064;2023-02-13T06:45:53;98400.69;;;0.27;nan
34328;BME280;20588;48.840;10.064;2023-02-13T06:48:19;98398.66;;;0.32;nan
34328;BME280;20588;48.840;10.064;2023-02-13T06:50:45;98405.63;;;0.41;nan
34328;BME280;20588;48.840;10.064;2023-02-13T06:53:11;98409.41;;;0.48;nan
34328;BME280;20588;48.840;10.064;2023-02-13T06:55:38;98413.97;;;0.56;nan
34328;BME280;20588;48.840;10.064;2023-02-13T06:58:05;98413.25;;;0.66;nan
34328;BME280;20588;48.840;10.064;2023-02-13T07:00:31;98413.38;;;0.77;nan
34328;BME280;20588;48.840;10.064;2023-02-13T07:03:05;98416.28;;;0.84;nan
34328;BME280;20588;48.840;10.064;2023-02-13T07:05:31;98419.72;;;0.95;nan
34328;BME280;20588;48.840;10.064;2023-02-13T07:07:58;98422.63;;;1.14;nan
34328;BME280;20588;48.840;10.064;2023-02-13T07:10:24;98414.59;;;1.33;nan
34328;BME280;20588;48.840;10.064;2023-02-13T07:12:50;98414.53;;;1.45;nan
34328;BME280;20588;48.840;10.064;2023-02-13T07:15:16;98412.06;;;1.56;nan
34328;BME280;20588;48.840;10.064;2023-02-13T07:17:42;98414.75;;;1.89;nan
34328;BME280;20588;48.840;10.064;2023-02-13T07:20:08;98425.00;;;2.12;nan
34328;BME280;20588;48.840;10.064;2023-02-13T07:22:35;98424.19;;;2.57;nan
34328;BME280;20588;48.840;10.064;2023-02-13T07:25:01;98417.19;;;2.82;nan
34328;BME280;20588;48.840;10.064;2023-02-13T07:27:27;98409.09;;;2.99;nan
34328;BME280;20588;48.840;10.064;2023-02-13T07:29:55;98408.75;;;3.15;nan
34328;BME280;20588;48.840;10.064;2023-02-13T07:32:23;98416.28;;;3.16;nan
34328;BME280;20588;48.840;10.064;2023-02-13T07:34:49;98415.66;;;4.09;nan
34328;BME280;20588;48.840;10.064;2023-02-13T07:37:15;98412.97;;;4.42;nan
34328;BME280;20588;48.840;10.064;2023-02-13T07:39:41;98411.38;;;4.92;nan
34328;BME280;20588;48.840;10.064;2023-02-13T07:42:07;98413.69;;;5.04;nan
34328;BME280;20588;48.840;10.064;2023-02-13T07:44:33;98417.63;;;4.88;nan
34328;BME280;20588;48.840;10.064;2023-02-13T07:46:59;98419.28;;;4.68;nan
34328;BME280;20588;48.840;10.064;2023-02-13T07:49:26;98421.88;;;4.48;nan
34328;BME280;20588;48.840;10.064;2023-02-13T07:51:52;98421.53;;;4.21;nan
34328;BME280;20588;48.840;10.064;2023-02-13T07:54:18;98417.75;;;4.56;nan
34328;BME280;20588;48.840;10.064;2023-02-13T07:56:44;98421.19;;;4.96;nan
34328;BME280;20588;48.840;10.064;2023-02-13T07:59:10;98423.16;;;5.72;nan
34328;BME280;20588;48.840;10.064;2023-02-13T08:01:36;98419.53;;;5.75;nan
34328;BME280;20588;48.840;10.064;2023-02-13T08:04:02;98427.00;;;5.97;nan
34328;BME280;20588;48.840;10.064;2023-02-13T08:06:28;98431.53;;;6.60;nan
34328;BME280;20588;48.840;10.064;2023-02-13T08:08:54;98427.38;;;6.30;nan
34328;BME280;20588;48.840;10.064;2023-02-13T08:11:40;98422.47;;;6.65;nan
34328;BME280;20588;48.840;10.064;2023-02-13T08:14:20;98423.44;;;6.55;nan
34328;BME280;20588;48.840;10.064;2023-02-13T08:16:46;98422.34;;;6.67;nan
34328;BME280;20588;48.840;10.064;2023-02-13T08:19:12;98415.63;;;6.47;nan
34328;BME280;20588;48.840;10.064;2023-02-13T08:21:38;98420.09;;;6.45;nan
34328;BME280;20588;48.840;10.064;2023-02-13T08:24:05;98426.31;;;6.33;nan
34328;BME280;20588;48.840;10.064;2023-02-13T08:26:32;98415.88;;;6.72;nan
34328;BME280;20588;48.840;10.064;2023-02-13T08:28:59;98407.56;;;8.31;nan
34328;BME280;20588;48.840;10.064;2023-02-13T08:31:25;98408.59;;;8.89;nan
34328;BME280;20588;48.840;10.064;2023-02-13T08:33:51;98407.22;;;8.52;nan
34328;BME280;20588;48.840;10.064;2023-02-13T08:36:17;98410.50;;;9.63;nan
34328;BME280;20588;48.840;10.064;2023-02-13T08:38:46;98402.41;;;10.47;nan
34328;BME280;20588;48.840;10.064;2023-02-13T08:41:13;98407.53;;;10.71;nan
34328;BME280;20588;48.840;10.064;2023-02-13T08:43:40;98403.03;;;11.89;nan
34328;BME280;20588;48.840;10.064;2023-02-13T08:46:06;98405.53;;;12.94;nan
34328;BME280;20588;48.840;10.064;2023-02-13T08:48:32;98406.78;;;12.32;nan
34328;BME280;20588;48.840;10.064;2023-02-13T08:50:58;98409.94;;;12.56;nan
34328;BME280;20588;48.840;10.064;2023-02-13T08:53:24;98411.38;;;12.22;nan
34328;BME280;20588;48.840;10.064;2023-02-13T08:55:56;98413.97;;;11.69;nan
34328;BME280;20588;48.840;10.064;2023-02-13T08:58:23;98403.72;;;12.28;nan
34328;BME280;20588;48.840;10.064;2023-02-13T09:00:49;98414.03;;;11.83;nan
34328;BME280;20588;48.840;10.064;2023-02-13T09:03:15;98413.81;;;10.61;nan
34328;BME280;20588;48.840;10.064;2023-02-13T09:05:44;98415.84;;;10.89;nan
34328;BME280;20588;48.840;10.064;2023-02-13T09:08:10;98417.28;;;11.00;nan
34328;BME280;20588;48.840;10.064;2023-02-13T09:10:39;98413.38;;;12.12;nan
34328;BME280;20588;48.840;10.064;2023-02-13T09:13:06;98413.38;;;13.94;nan
34328;BME280;20588;48.840;10.064;2023-02-13T09:15:32;98416.28;;;14.76;nan
34328;BME280;20588;48.840;10.064;2023-02-13T09:17:58;98408.75;;;16.87;nan
34328;BME280;20588;48.840;10.064;2023-02-13T09:20:24;98415.75;;;17.63;nan
34328;BME280;20588;48.840;10.064;2023-02-13T09:22:50;98417.03;;;17.41;nan
34328;BME280;20588;48.840;10.064;2023-02-13T09:25:17;98422.84;;;17.87;nan
34328;BME280;20588;48.840;10.064;2023-02-13T09:27:44;98416.50;;;17.77;nan
34328;BME280;20588;48.840;10.064;2023-02-13T09:30:11;98417.41;;;19.18;nan
34328;BME280;20588;48.840;10.064;2023-02-13T09:32:42;98415.75;;;19.24;nan
34328;BME280;20588;48.840;10.064;2023-02-13T09:35:09;98419.16;;;18.64;nan
34328;BME280;20588;48.840;10.064;2023-02-13T09:37:35;98418.69;;;20.11;nan
34328;BME280;20588;48.840;10.064;2023-02-13T09:40:01;98412.59;;;19.40;nan
34328;BME280;20588;48.840;10.064;2023-02-13T09:42:32;98416.22;;;19.87;nan
34328;BME280;20588;48.840;10.064;2023-02-13T09:45:03;98409.03;;;20.53;nan
34328;BME280;20588;48.840;10.064;2023-02-13T09:47:31;98411.34;;;19.60;nan
34328;BME280;20588;48.840;10.064;2023-02-13T09:52:35;98412.53;;;20.47;nan
34328;BME280;20588;48.840;10.064;2023-02-13T09:55:03;98413.94;;;20.61;nan
34328;BME280;20588;48.840;10.064;2023-02-13T09:57:46;98418.94;;;20.10;nan
34328;BME280;20588;48.840;10.064;2023-02-13T10:00:33;98404.31;;;20.96;nan
34328;BME280;20588;48.840;10.064;2023-02-13T10:03:59;98413.69;;;20.74;nan
34328;BME280;20588;48.840;10.064;2023-02-13T10:06:42;98412.09;;;22.10;nan
34328;BME280;20588;48.840;10.064;2023-02-13T10:09:38;98413.97;;;22.75;nan
34328;BME280;20588;48.840;10.064;2023-02-13T10:12:21;98422.06;;;22.90;nan
34328;BME280;20588;48.840;10.064;2023-02-13T10:17:49;98409.88;;;23.87;nan
34328;BME280;20588;48.840;10.064;2023-02-13T10:20:27;98412.31;;;24.78;nan
34328;BME280;20588;48.840;10.064;2023-02-13T10:26:10;98415.44;;;23.91;nan
34328;BME280;20588;48.840;10.064;2023-02-13T10:28:41;98418.50;;;24.31;nan
34328;BME280;20588;48.840;10.064;2023-02-13T10:31:17;98421.34;;;23.76;nan
34328;BME280;20588;48.840;10.064;2023-02-13T10:33:49;98419.78;;;23.54;nan
34328;BME280;20588;48.840;10.064;2023-02-13T10:44:26;98405.97;;;25.21;nan
34328;BME280;20588;48.840;10.064;2023-02-13T10:47:37;98408.81;;;25.10;nan
34328;BME280;20588;48.840;10.064;2023-02-13T10:50:20;98401.34;;;25.38;nan
34328;BME280;20588;48.840;10.064;2023-02-13T10:53:22;98396.81;;;26.81;nan
34328;BME280;20588;48.840;10.064;2023-02-13T10:56:22;98391.03;;;25.42;nan
34328;BME280;20588;48.840;10.064;2023-02-13T11:01:56;98378.72;;;24.27;nan
34328;BME280;20588;48.840;10.064;2023-02-13T11:04:25;98372.88;;;24.57;nan
34328;BME280;20588;48.840;10.064;2023-02-13T11:06:58;98366.56;;;24.21;nan
34328;BME280;20588;48.840;10.064;2023-02-13T11:09:25;98375.03;;;21.78;nan
34328;BME280;20588;48.840;10.064;2023-02-13T11:11:51;98367.44;;;23.79;nan
34328;BME280;20588;48.840;10.064;2023-02-13T11:16:54;98364.34;;;24.45;nan
34328;BME280;20588;48.840;10.064;2023-02-13T11:19:24;98361.06;;;23.27;nan
34328;BME280;20588;48.840;10.064;2023-02-13T11:22:00;98363.31;;;22.96;nan
34328;BME280;20588;48.840;10.064;2023-02-13T11:24:28;98369.53;;;19.31;nan
34328;BME280;20588;48.840;10.064;2023-02-13T11:27:06;98368.31;;;18.48;nan
34328;BME280;20588;48.840;10.064;2023-02-13T11:29:35;98362.97;;;17.37;nan
34328;BME280;20588;48.840;10.064;2023-02-13T11:32:06;98371.06;;;15.59;nan
34328;BME280;20588;48.840;10.064;2023-02-13T11:34:37;98371.56;;;16.21;nan
34328;BME280;20588;48.840;10.064;2023-02-13T11:37:27;98367.44;;;15.13;nan
34328;BME280;20588;48.840;10.064;2023-02-13T11:39:59;98370.50;;;14.55;nan
34328;BME280;20588;48.840;10.064;2023-02-13T11:42:31;98374.16;;;13.41;nan
34328;BME280;20588;48.840;10.064;2023-02-13T11:45:19;98373.38;;;11.93;nan
34328;BME280;20588;48.840;10.064;2023-02-13T11:47:45;98373.66;;;12.35;nan
34328;BME280;20588;48.840;10.064;2023-02-13T11:53:00;98368.06;;;13.63;nan
34328;BME280;20588;48.840;10.064;2023-02-13T11:55:29;98363.72;;;14.12;nan
34328;BME280;20588;48.840;10.064;2023-02-13T11:58:21;98356.22;;;13.54;nan
34328;BME280;20588;48.840;10.064;2023-02-13T12:00:48;98365.09;;;12.72;nan
34328;BME280;20588;48.840;10.064;2023-02-13T12:03:31;98370.97;;;11.61;nan
34328;BME280;20588;48.840;10.064;2023-02-13T12:06:15;98369.06;;;11.55;nan
34328;BME280;20588;48.840;10.064;2023-02-13T12:08:43;98363.31;;;11.98;nan
34328;BME280;20588;48.840;10.064;2023-02-13T12:11:35;98363.09;;;11.63;nan
34328;BME280;20588;48.840;10.064;2023-02-13T12:14:04;98361.53;;;11.99;nan
34328;BME280;20588;48.840;10.064;2023-02-13T12:16:44;98359.13;;;11.75;nan
34328;BME280;20588;48.840;10.064;2023-02-13T12:22:14;98360.19;;;12.62;nan
34328;BME280;20588;48.840;10.064;2023-02-13T12:30:58;98354.38;;;11.56;nan
34328;BME280;20588;48.840;10.064;2023-02-13T12:33:39;98354.97;;;11.74;nan
34328;BME280;20588;48.840;10.064;2023-02-13T12:36:15;98352.78;;;11.85;nan
34328;BME280;20588;48.840;10.064;2023-02-13T12:39:17;98355.19;;;11.26;nan
34328;BME280;20588;48.840;10.064;2023-02-13T12:42:08;98356.00;;;11.87;nan
34328;BME280;20588;48.840;10.064;2023-02-13T12:47:37;98356.78;;;11.57;nan
34328;BME280;20588;48.840;10.064;2023-02-13T13:01:22;98352.84;;;11.08;nan
34328;BME280;20588;48.840;10.064;2023-02-13T13:06:37;98359.97;;;10.35;nan
34328;BME280;20588;48.840;10.064;2023-02-13T13:09:33;98370.25;;;10.35;nan
34328;BME280;20588;48.840;10.064;2023-02-13T13:18:00;98350.81;;;10.25;nan
34328;BME280;20588;48.840;10.064;2023-02-13T13:23:34;98356.41;;;10.36;nan
34328;BME280;20588;48.840;10.064;2023-02-13T13:28:39;98362.94;;;9.51;nan
34328;BME280;20588;48.840;10.064;2023-02-13T13:31:07;98367.06;;;9.36;nan
34328;BME280;20588;48.840;10.064;2023-02-13T13:33:34;98360.03;;;9.46;nan
34328;BME280;20588;48.840;10.064;2023-02-13T13:36:03;98369.25;;;9.72;nan
34328;BME280;20588;48.840;10.064;2023-02-13T13:38:55;98363.81;;;10.07;nan
34328;BME280;20588;48.840;10.064;2023-02-13T13:41:39;98363.28;;;9.56;nan
34328;BME280;20588;48.840;10.064;2023-02-13T13:49:59;98361.28;;;7.80;nan
34328;BME280;20588;48.840;10.064;2023-02-13T13:52:31;98367.16;;;7.90;nan
34328;BME280;20588;48.840;10.064;2023-02-13T13:55:00;98365.53;;;7.72;nan
34328;BME280;20588;48.840;10.064;2023-02-13T14:05:19;98356.25;;;7.71;nan
34328;BME280;20588;48.840;10.064;2023-02-13T14:07:47;98350.81;;;7.74;nan
34328;BME280;20588;48.840;10.064;2023-02-13T14:12:48;98345.03;;;6.73;nan
34328;BME280;20588;48.840;10.064;2023-02-13T14:15:48;98348.47;;;6.91;nan
34328;BME280;20588;48.840;10.064;2023-02-13T14:20:41;98343.06;;;6.67;nan
34328;BME280;20588;48.840;10.064;2023-02-13T14:23:21;98346.72;;;6.64;nan
34328;BME280;20588;48.840;10.064;2023-02-13T14:31:21;98352.19;;;6.14;nan
34328;BME280;20588;48.840;10.064;2023-02-13T14:34:18;98351.69;;;6.01;nan
34328;BME280;20588;48.840;10.064;2023-02-13T14:37:05;98355.28;;;5.79;nan
34328;BME280;20588;48.840;10.064;2023-02-13T14:39:42;98361.88;;;5.82;nan
34328;BME280;20588;48.840;10.064;2023-02-13T14:42:26;98356.38;;;5.77;nan
34328;BME280;20588;48.840;10.064;2023-02-13T14:44:57;98356.88;;;5.61;nan
34328;BME280;20588;48.840;10.064;2023-02-13T14:47:34;98352.84;;;5.68;nan
34328;BME280;20588;48.840;10.064;2023-02-13T14:50:05;98356.19;;;5.59;nan
34328;BME280;20588;48.840;10.064;2023-02-13T14:52:37;98355.38;;;5.39;nan
34328;BME280;20588;48.840;10.064;2023-02-13T14:55:19;98356.28;;;5.29;nan
34328;BME280;20588;48.840;10.064;2023-02-13T14:57:57;98356.56;;;5.26;nan
34328;BME280;20588;48.840;10.064;2023-02-13T15:00:43;98350.94;;;5.41;nan
34328;BME280;20588;48.840;10.064;2023-02-13T15:03:26;98349.06;;;5.34;nan
34328;BME280;20588;48.840;10.064;2023-02-13T15:05:58;98344.13;;;4.93;nan
34328;BME280;20588;48.840;10.064;2023-02-13T15:08:46;98350.22;;;5.11;nan
34328;BME280;20588;48.840;10.064;2023-02-13T15:11:28;98352.84;;;4.90;nan
34328;BME280;20588;48.840;10.064;2023-02-13T15:14:32;98346.38;;;4.86;nan
34328;BME280;20588;48.840;10.064;2023-02-13T15:17:20;98347.56;;;4.82;nan
34328;BME280;20588;48.840;10.064;2023-02-13T15:19:51;98347.28;;;4.76;nan
34328;BME280;20588;48.840;10.064;2023-02-13T15:22:37;98349.72;;;4.87;nan
34328;BME280;20588;48.840;10.064;2023-02-13T15:25:19;98357.56;;;5.04;nan
34328;BME280;20588;48.840;10.064;2023-02-13T15:27:51;98350.00;;;4.84;nan
34328;BME280;20588;48.840;10.064;2023-02-13T15:30:26;98344.88;;;4.84;nan
34328;BME280;20588;48.840;10.064;2023-02-13T15:35:28;98339.06;;;5.02;nan
34328;BME280;20588;48.840;10.064;2023-02-13T15:37:55;98341.00;;;4.80;nan
34328;BME280;20588;48.840;10.064;2023-02-13T15:40:31;98338.97;;;4.83;nan
34328;BME280;20588;48.840;10.064;2023-02-13T15:42:59;98352.88;;;4.70;nan
34328;BME280;20588;48.840;10.064;2023-02-13T15:45:27;98347.25;;;4.66;nan
34328;BME280;20588;48.840;10.064;2023-02-13T15:47:55;98352.94;;;4.79;nan
34328;BME280;20588;48.840;10.064;2023-02-13T15:50:33;98345.63;;;4.65;nan